sensor_id;sensor_type;location;lat;lon;timestamp;temperature;humidity
14755;DHT22;7469;50.906;6.952;2023-12-20T00:01:22;7.80;99.90
14755;DHT22;7469;50.906;6.952;2023-12-20T00:03:51;7.80;99.90
14755;DHT22;7469;50.906;6.952;2023-12-20T00:06:19;7.80;99.90
14755;DHT22;7469;50.906;6.952;2023-12-20T00:08:47;7.80;99.90
14755;DHT22;7469;50.906;6.952;2023-12-20T00:11:15;7.80;99.90
14755;DHT22;7469;50.906;6.952;2023-12-20T00:13:43;7.80;99.90
14755;DHT22;7469;50.906;6.952;2023-12-20T00:16:16;7.80;99.90
14755;DHT22;7469;50.906;6.952;2023-12-20T00:18:44;7.80;99.90
14755;DHT22;7469;50.906;6.952;2023-12-20T00:21:13;7.80;99.90
14755;DHT22;7469;50.906;6.952;2023-12-20T00:23:42;7.80;99.90
14755;DHT22;7469;50.906;6.952;2023-12-20T00:26:10;7.80;99.90
14755;DHT22;7469;50.906;6.952;2023-12-20T00:28:38;7.80;99.90
14755;DHT22;7469;50.906;6.952;2023-12-20T00:31:06;7.90;99.90
14755;DHT22;7469;50.906;6.952;2023-12-20T00:33:35;7.90;99.90
14755;DHT22;7469;50.906;6.952;2023-12-20T00:36:04;7.90;99.90
14755;DHT22;7469;50.906;6.952;2023-12-20T00:38:32;7.90;99.90
14755;DHT22;7469;50.906;6.952;2023-12-20T00:41:00;7.90;99.90
14755;DHT22;7469;50.906;6.952;2023-12-20T00:43:29;7.80;99.90
14755;DHT22;7469;50.906;6.952;2023-12-20T00:45:57;7.80;99.90
14755;DHT22;7469;50.906;6.952;2023-12-20T00:48:26;7.80;99.90
14755;DHT22;7469;50.906;6.952;2023-12-20T00:50:58;7.80;99.90
14755;DHT22;7469;50.906;6.952;2023-12-20T00:53:26;7.80;99.90
14755;DHT22;7469;50.906;6.952;2023-12-20T00:55:54;7.80;99.90
14755;DHT22;7469;50.906;6.952;2023-12-20T00:58:22;7.80;99.90
14755;DHT22;7469;50.906;6.952;2023-12-20T01:00:50;7.80;99.90
14755;DHT22;7469;50.906;6.952;2023-12-20T01:03:18;7.80;99.90
14755;DHT22;7469;50.906;6.952;2023-12-20T01:05:46;7.80;99.90
14755;DHT22;7469;50.906;6.952;2023-12-20T01:08:15;7.80;99.90
14755;DHT22;7469;50.906;6.952;2023-12-20T01:10:43;7.80;99.90
14755;DHT22;7469;50.906;6.952;2023-12-20T01:13:11;7.80;99.90
14755;DHT22;7469;50.906;6.952;2023-12-20T01:15:39;7.80;99.90
14755;DHT22;7469;50.906;6.952;2023-12-20T01:18:07;7.80;99.90
14755;DHT22;7469;50.906;6.952;2023-12-20T01:20:35;7.80;99.90
14755;DHT22;7469;50.906;6.952;2023-12-20T01:23:03;7.80;99.90
14755;DHT22;7469;50.906;6.952;2023-12-20T01:25:33;7.80;99.90
14755;DHT22;7469;50.906;6.952;2023-12-20T01:28:00;7.70;99.90
14755;DHT22;7469;50.906;6.952;2023-12-20T01:30:28;7.70;99.90
14755;DHT22;7469;50.906;6.952;2023-12-20T01:32:56;7.70;99.90
14755;DHT22;7469;50.906;6.952;2023-12-20T01:35:24;7.60;99.90
14755;DHT22;7469;50.906;6.952;2023-12-20T01:37:52;7.60;99.90
14755;DHT22;7469;50.906;6.952;2023-12-20T01:40:23;7.60;99.90
14755;DHT22;7469;50.906;6.952;2023-12-20T01:42:59;7.60;99.90
14755;DHT22;7469;50.906;6.952;2023-12-20T01:45:28;7.60;99.90
14755;DHT22;7469;50.906;6.952;2023-12-20T01:47:58;7.60;99.90
14755;DHT22;7469;50.906;6.952;2023-12-20T01:50:29;7.60;99.90
14755;DHT22;7469;50.906;6.952;2023-12-20T01:53:01;7.60;99.90
14755;DHT22;7469;50.906;6.952;2023-12-20T01:55:33;7.60;99.90
14755;DHT22;7469;50.906;6.952;2023-12-20T01:58:04;7.60;99.90
14755;DHT22;7469;50.906;6.952;2023-12-20T02:00:32;7.50;99.90
14755;DHT22;7469;50.906;6.952;2023-12-20T02:03:02;7.50;99.90
14755;DHT22;7469;50.906;6.952;2023-12-20T02:05:30;7.50;99.90
14755;DHT22;7469;50.906;6.952;2023-12-20T02:07:58;7.40;99.90
14755;DHT22;7469;50.906;6.952;2023-12-20T02:10:27;7.40;99.90
14755;DHT22;7469;50.906;6.952;2023-12-20T02:12:55;7.40;99.90
14755;DHT22;7469;50.906;6.952;2023-12-20T02:15:25;7.30;99.90
14755;DHT22;7469;50.906;6.952;2023-12-20T02:17:53;7.30;99.90
14755;DHT22;7469;50.906;6.952;2023-12-20T02:20:22;7.30;99.90
14755;DHT22;7469;50.906;6.952;2023-12-20T02:22:51;7.20;99.90
14755;DHT22;7469;50.906;6.952;2023-12-20T02:25:19;7.20;99.90
14755;DHT22;7469;50.906;6.952;2023-12-20T02:27:48;7.10;99.90
14755;DHT22;7469;50.906;6.952;2023-12-20T02:30:16;7.10;99.90
14755;DHT22;7469;50.906;6.952;2023-12-20T02:32:44;7.00;99.90
14755;DHT22;7469;50.906;6.952;2023-12-20T02:35:13;6.90;99.90
14755;DHT22;7469;50.906;6.952;2023-12-20T02:37:41;6.90;99.90
14755;DHT22;7469;50.906;6.952;2023-12-20T02:40:13;6.90;99.90
14755;DHT22;7469;50.906;6.952;2023-12-20T02:42:42;6.90;99.90
14755;DHT22;7469;50.906;6.952;2023-12-20T02:45:11;6.80;99.90
14755;DHT22;7469;50.906;6.952;2023-12-20T02:47:39;6.80;99.90
14755;DHT22;7469;50.906;6.952;2023-12-20T02:50:08;6.80;99.90
14755;DHT22;7469;50.906;6.952;2023-12-20T02:52:38;6.80;99.90
14755;DHT22;7469;50.906;6.952;2023-12-20T02:55:06;6.80;99.90
14755;DHT22;7469;50.906;6.952;2023-12-20T02:57:36;6.80;99.90
14755;DHT22;7469;50.906;6.952;2023-12-20T03:00:11;6.80;99.90
14755;DHT22;7469;50.906;6.952;2023-12-20T03:02:41;6.70;99.90
14755;DHT22;7469;50.906;6.952;2023-12-20T03:05:09;6.80;99.90
14755;DHT22;7469;50.906;6.952;2023-12-20T03:07:37;6.70;99.90
14755;DHT22;7469;50.906;6.952;2023-12-20T03:10:06;6.80;99.90
14755;DHT22;7469;50.906;6.952;2023-12-20T03:12:48;6.80;99.90
14755;DHT22;7469;50.906;6.952;2023-12-20T03:15:16;6.80;99.90
14755;DHT22;7469;50.906;6.952;2023-12-20T03:17:44;6.80;99.90
14755;DHT22;7469;50.906;6.952;2023-12-20T03:20:12;6.80;99.90
14755;DHT22;7469;50.906;6.952;2023-12-20T03:22:40;6.80;99.90
14755;DHT22;7469;50.906;6.952;2023-12-20T03:25:08;6.80;99.90
14755;DHT22;7469;50.906;6.952;2023-12-20T03:27:37;6.80;99.90
14755;DHT22;7469;50.906;6.952;2023-12-20T03:30:11;6.80;99.90
14755;DHT22;7469;50.906;6.952;2023-12-20T03:32:41;6.80;99.90
14755;DHT22;7469;50.906;6.952;2023-12-20T03:35:10;6.80;99.90
14755;DHT22;7469;50.906;6.952;2023-12-20T03:37:38;6.80;99.90
14755;DHT22;7469;50.906;6.952;2023-12-20T03:40:07;6.90;99.90
14755;DHT22;7469;50.906;6.952;2023-12-20T03:42:35;6.80;99.90
14755;DHT22;7469;50.906;6.952;2023-12-20T03:45:03;6.80;99.90
14755;DHT22;7469;50.906;6.952;2023-12-20T03:47:33;6.80;99.90
14755;DHT22;7469;50.906;6.952;2023-12-20T03:50:01;6.80;99.90
14755;DHT22;7469;50.906;6.952;2023-12-20T03:52:33;6.80;99.90
14755;DHT22;7469;50.906;6.952;2023-12-20T03:55:05;6.90;99.90
14755;DHT22;7469;50.906;6.952;2023-12-20T03:57:35;6.80;99.90
14755;DHT22;7469;50.906;6.952;2023-12-20T04:00:04;6.80;99.90
14755;DHT22;7469;50.906;6.952;2023-12-20T04:02:38;6.80;99.90
14755;DHT22;7469;50.906;6.952;2023-12-20T04:05:07;6.80;99.90
14755;DHT22;7469;50.906;6.952;2023-12-20T04:07:35;6.80;99.90
14755;DHT22;7469;50.906;6.952;2023-12-20T04:10:05;6.90;99.90
14755;DHT22;7469;50.906;6.952;2023-12-20T04:12:33;6.90;99.90
14755;DHT22;7469;50.906;6.952;2023-12-20T04:15:03;6.90;99.90
14755;DHT22;7469;50.906;6.952;2023-12-20T04:17:35;6.90;99.90
14755;DHT22;7469;50.906;6.952;2023-12-20T04:20:06;6.80;99.90
14755;DHT22;7469;50.906;6.952;2023-12-20T04:22:35;6.80;99.90
14755;DHT22;7469;50.906;6.952;2023-12-20T04:25:03;6.80;99.90
14755;DHT22;7469;50.906;6.952;2023-12-20T04:27:32;6.80;99.90
14755;DHT22;7469;50.906;6.952;2023-12-20T04:29:59;6.80;99.90
14755;DHT22;7469;50.906;6.952;2023-12-20T04:32:27;6.80;99.90
14755;DHT22;7469;50.906;6.952;2023-12-20T04:34:55;6.80;99.90
14755;DHT22;7469;50.906;6.952;2023-12-20T04:37:25;6.80;99.90
14755;DHT22;7469;50.906;6.952;2023-12-20T04:39:53;6.80;99.90
14755;DHT22;7469;50.906;6.952;2023-12-20T04:42:21;6.80;99.90
14755;DHT22;7469;50.906;6.952;2023-12-20T04:44:49;6.80;99.90
14755;DHT22;7469;50.906;6.952;2023-12-20T04:47:17;6.80;99.90
14755;DHT22;7469;50.906;6.952;2023-12-20T04:49:45;6.70;99.90
14755;DHT22;7469;50.906;6.952;2023-12-20T04:52:14;6.70;99.90
14755;DHT22;7469;50.906;6.952;2023-12-20T04:54:44;6.70;99.90
14755;DHT22;7469;50.906;6.952;2023-12-20T04:57:12;6.60;99.90
14755;DHT22;7469;50.906;6.952;2023-12-20T04:59:40;6.60;99.90
14755;DHT22;7469;50.906;6.952;2023-12-20T05:02:10;6.60;99.90
14755;DHT22;7469;50.906;6.952;2023-12-20T05:04:38;6.60;99.90
14755;DHT22;7469;50.906;6.952;2023-12-20T05:07:06;6.60;99.90
14755;DHT22;7469;50.906;6.952;2023-12-20T05:09:34;6.70;99.90
14755;DHT22;7469;50.906;6.952;2023-12-20T05:12:04;6.60;99.90
14755;DHT22;7469;50.906;6.952;2023-12-20T05:14:33;6.60;99.90
14755;DHT22;7469;50.906;6.952;2023-12-20T05:17:01;6.60;99.90
14755;DHT22;7469;50.906;6.952;2023-12-20T05:19:29;6.60;99.90
14755;DHT22;7469;50.906;6.952;2023-12-20T05:21:58;6.60;99.90
14755;DHT22;7469;50.906;6.952;2023-12-20T05:24:26;6.60;99.90
14755;DHT22;7469;50.906;6.952;2023-12-20T05:26:54;6.60;99.90
14755;DHT22;7469;50.906;6.952;2023-12-20T05:29:23;6.50;99.90
14755;DHT22;7469;50.906;6.952;2023-12-20T05:31:51;6.60;99.90
14755;DHT22;7469;50.906;6.952;2023-12-20T05:34:19;6.50;99.90
14755;DHT22;7469;50.906;6.952;2023-12-20T05:36:47;6.50;99.90
14755;DHT22;7469;50.906;6.952;2023-12-20T05:39:15;6.60;99.90
14755;DHT22;7469;50.906;6.952;2023-12-20T05:41:45;6.50;99.90
14755;DHT22;7469;50.906;6.952;2023-12-20T05:44:14;6.50;99.90
14755;DHT22;7469;50.906;6.952;2023-12-20T05:46:46;6.50;99.90
14755;DHT22;7469;50.906;6.952;2023-12-20T05:49:14;6.50;99.90
14755;DHT22;7469;50.906;6.952;2023-12-20T05:51:43;6.50;99.90
14755;DHT22;7469;50.906;6.952;2023-12-20T05:54:11;6.50;99.90
14755;DHT22;7469;50.906;6.952;2023-12-20T05:56:39;6.50;99.90
14755;DHT22;7469;50.906;6.952;2023-12-20T05:59:07;6.50;99.90
14755;DHT22;7469;50.906;6.952;2023-12-20T06:01:36;6.50;99.90
14755;DHT22;7469;50.906;6.952;2023-12-20T06:04:05;6.50;99.90
14755;DHT22;7469;50.906;6.952;2023-12-20T06:06:33;6.50;99.90
14755;DHT22;7469;50.906;6.952;2023-12-20T06:09:02;6.50;99.90
14755;DHT22;7469;50.906;6.952;2023-12-20T06:11:30;6.50;99.90
14755;DHT22;7469;50.906;6.952;2023-12-20T06:13:58;6.50;99.90
14755;DHT22;7469;50.906;6.952;2023-12-20T06:16:26;6.50;99.90
14755;DHT22;7469;50.906;6.952;2023-12-20T06:18:54;6.50;99.90
14755;DHT22;7469;50.906;6.952;2023-12-20T06:21:24;6.50;99.90
14755;DHT22;7469;50.906;6.952;2023-12-20T06:23:52;6.50;99.90
14755;DHT22;7469;50.906;6.952;2023-12-20T06:26:20;6.60;99.90
14755;DHT22;7469;50.906;6.952;2023-12-20T06:28:48;6.60;99.90
14755;DHT22;7469;50.906;6.952;2023-12-20T06:31:16;6.60;99.90
14755;DHT22;7469;50.906;6.952;2023-12-20T06:33:45;6.60;99.90
14755;DHT22;7469;50.906;6.952;2023-12-20T06:36:14;6.60;99.90
14755;DHT22;7469;50.906;6.952;2023-12-20T06:38:43;6.60;99.90
14755;DHT22;7469;50.906;6.952;2023-12-20T06:41:13;6.60;99.90
14755;DHT22;7469;50.906;6.952;2023-12-20T06:43:42;6.60;99.90
14755;DHT22;7469;50.906;6.952;2023-12-20T06:46:16;6.60;99.90
14755;DHT22;7469;50.906;6.952;2023-12-20T06:48:44;6.60;99.90
14755;DHT22;7469;50.906;6.952;2023-12-20T06:51:15;6.70;99.90
14755;DHT22;7469;50.906;6.952;2023-12-20T06:53:44;6.70;99.90
14755;DHT22;7469;50.906;6.952;2023-12-20T06:56:12;6.70;99.90
14755;DHT22;7469;50.906;6.952;2023-12-20T06:58:44;6.60;99.90
14755;DHT22;7469;50.906;6.952;2023-12-20T07:01:13;6.70;99.90
14755;DHT22;7469;50.906;6.952;2023-12-20T07:03:41;6.70;99.90
14755;DHT22;7469;50.906;6.952;2023-12-20T07:06:09;6.70;99.90
14755;DHT22;7469;50.906;6.952;2023-12-20T07:08:37;6.70;99.90
14755;DHT22;7469;50.906;6.952;2023-12-20T07:11:10;6.70;99.90
14755;DHT22;7469;50.906;6.952;2023-12-20T07:13:39;6.70;99.90
14755;DHT22;7469;50.906;6.952;2023-12-20T07:16:08;6.70;99.90
14755;DHT22;7469;50.906;6.952;2023-12-20T07:18:37;6.70;99.90
14755;DHT22;7469;50.906;6.952;2023-12-20T07:21:05;6.70;99.90
14755;DHT22;7469;50.906;6.952;2023-12-20T07:23:34;6.80;99.90
14755;DHT22;7469;50.906;6.952;2023-12-20T07:26:03;6.80;99.90
14755;DHT22;7469;50.906;6.952;2023-12-20T07:28:32;6.80;99.90
14755;DHT22;7469;50.906;6.952;2023-12-20T07:31:00;6.80;99.90
14755;DHT22;7469;50.906;6.952;2023-12-20T07:33:29;6.80;99.90
14755;DHT22;7469;50.906;6.952;2023-12-20T07:36:06;6.80;99.90
14755;DHT22;7469;50.906;6.952;2023-12-20T07:38:34;6.80;99.90
14755;DHT22;7469;50.906;6.952;2023-12-20T07:41:02;6.80;99.90
14755;DHT22;7469;50.906;6.952;2023-12-20T07:43:31;6.80;99.90
14755;DHT22;7469;50.906;6.952;2023-12-20T07:46:04;6.80;99.90
14755;DHT22;7469;50.906;6.952;2023-12-20T07:48:33;6.80;99.90
14755;DHT22;7469;50.906;6.952;2023-12-20T07:51:01;6.80;99.90
14755;DHT22;7469;50.906;6.952;2023-12-20T07:53:29;6.80;99.90
14755;DHT22;7469;50.906;6.952;2023-12-20T07:55:57;6.90;99.90
14755;DHT22;7469;50.906;6.952;2023-12-20T07:58:25;6.90;99.90
14755;DHT22;7469;50.906;6.952;2023-12-20T08:01:12;6.90;99.90
14755;DHT22;7469;50.906;6.952;2023-12-20T08:03:40;6.90;99.90
14755;DHT22;7469;50.906;6.952;2023-12-20T08:06:08;6.90;99.90
14755;DHT22;7469;50.906;6.952;2023-12-20T08:08:36;6.90;99.90
14755;DHT22;7469;50.906;6.952;2023-12-20T08:11:04;6.90;99.90
14755;DHT22;7469;50.906;6.952;2023-12-20T08:13:32;6.90;99.90
14755;DHT22;7469;50.906;6.952;2023-12-20T08:16:00;6.90;99.90
14755;DHT22;7469;50.906;6.952;2023-12-20T08:18:33;6.90;99.90
14755;DHT22;7469;50.906;6.952;2023-12-20T08:21:01;6.90;99.90
14755;DHT22;7469;50.906;6.952;2023-12-20T08:23:29;6.90;99.90
14755;DHT22;7469;50.906;6.952;2023-12-20T08:26:02;6.90;99.90
14755;DHT22;7469;50.906;6.952;2023-12-20T08:28:30;6.90;99.90
14755;DHT22;7469;50.906;6.952;2023-12-20T08:31:00;6.90;99.90
14755;DHT22;7469;50.906;6.952;2023-12-20T08:33:36;6.90;99.90
14755;DHT22;7469;50.906;6.952;2023-12-20T08:36:06;6.90;99.90
14755;DHT22;7469;50.906;6.952;2023-12-20T08:38:34;6.90;99.90
14755;DHT22;7469;50.906;6.952;2023-12-20T08:41:02;6.90;99.90
14755;DHT22;7469;50.906;6.952;2023-12-20T08:43:31;6.90;99.90
14755;DHT22;7469;50.906;6.952;2023-12-20T08:46:00;6.90;99.90
14755;DHT22;7469;50.906;6.952;2023-12-20T08:48:28;7.00;99.90
14755;DHT22;7469;50.906;6.952;2023-12-20T08:50:57;7.00;99.90
14755;DHT22;7469;50.906;6.952;2023-12-20T08:53:25;7.10;99.90
14755;DHT22;7469;50.906;6.952;2023-12-20T08:55:54;7.10;99.90
14755;DHT22;7469;50.906;6.952;2023-12-20T08:58:25;7.10;99.90
14755;DHT22;7469;50.906;6.952;2023-12-20T09:00:54;7.20;99.90
14755;DHT22;7469;50.906;6.952;2023-12-20T09:03:22;7.10;99.90
14755;DHT22;7469;50.906;6.952;2023-12-20T09:05:50;7.20;99.90
14755;DHT22;7469;50.906;6.952;2023-12-20T09:08:20;7.20;99.90
14755;DHT22;7469;50.906;6.952;2023-12-20T09:10:48;7.30;99.90
14755;DHT22;7469;50.906;6.952;2023-12-20T09:13:17;7.30;99.90
14755;DHT22;7469;50.906;6.952;2023-12-20T09:15:48;7.30;99.90
14755;DHT22;7469;50.906;6.952;2023-12-20T09:18:16;7.30;99.90
14755;DHT22;7469;50.906;6.952;2023-12-20T09:20:44;7.30;99.90
14755;DHT22;7469;50.906;6.952;2023-12-20T09:23:16;7.30;99.90
14755;DHT22;7469;50.906;6.952;2023-12-20T09:25:48;7.30;99.90
14755;DHT22;7469;50.906;6.952;2023-12-20T09:28:19;7.30;99.90
14755;DHT22;7469;50.906;6.952;2023-12-20T09:30:46;7.30;99.90
14755;DHT22;7469;50.906;6.952;2023-12-20T09:33:15;7.30;99.90
14755;DHT22;7469;50.906;6.952;2023-12-20T09:35:43;7.30;99.90
14755;DHT22;7469;50.906;6.952;2023-12-20T09:38:12;7.30;99.90
14755;DHT22;7469;50.906;6.952;2023-12-20T09:40:42;7.20;99.90
14755;DHT22;7469;50.906;6.952;2023-12-20T09:43:15;7.30;99.90
14755;DHT22;7469;50.906;6.952;2023-12-20T09:45:46;7.20;99.90
14755;DHT22;7469;50.906;6.952;2023-12-20T09:48:17;7.30;99.90
14755;DHT22;7469;50.906;6.952;2023-12-20T09:50:46;7.30;99.90
14755;DHT22;7469;50.906;6.952;2023-12-20T09:53:19;7.30;99.90
14755;DHT22;7469;50.906;6.952;2023-12-20T09:55:50;7.30;99.90
14755;DHT22;7469;50.906;6.952;2023-12-20T09:58:20;7.30;99.90
14755;DHT22;7469;50.906;6.952;2023-12-20T10:00:48;7.30;99.90
14755;DHT22;7469;50.906;6.952;2023-12-20T10:03:18;7.30;99.90
14755;DHT22;7469;50.906;6.952;2023-12-20T10:05:52;7.40;99.90
14755;DHT22;7469;50.906;6.952;2023-12-20T10:08:22;7.40;99.90
14755;DHT22;7469;50.906;6.952;2023-12-20T10:10:50;7.40;99.90
14755;DHT22;7469;50.906;6.952;2023-12-20T10:13:19;7.40;99.90
14755;DHT22;7469;50.906;6.952;2023-12-20T10:15:49;7.40;99.90
14755;DHT22;7469;50.906;6.952;2023-12-20T10:18:18;7.40;99.90
14755;DHT22;7469;50.906;6.952;2023-12-20T10:20:46;7.40;99.90
14755;DHT22;7469;50.906;6.952;2023-12-20T10:23:16;7.40;99.90
14755;DHT22;7469;50.906;6.952;2023-12-20T10:25:55;7.40;99.90
14755;DHT22;7469;50.906;6.952;2023-12-20T10:28:25;7.40;99.90
14755;DHT22;7469;50.906;6.952;2023-12-20T10:30:55;7.40;99.90
14755;DHT22;7469;50.906;6.952;2023-12-20T10:33:24;7.50;99.90
14755;DHT22;7469;50.906;6.952;2023-12-20T10:35:54;7.50;99.90
14755;DHT22;7469;50.906;6.952;2023-12-20T10:38:22;7.50;99.90
14755;DHT22;7469;50.906;6.952;2023-12-20T10:40:53;7.60;99.90
14755;DHT22;7469;50.906;6.952;2023-12-20T10:43:23;7.60;99.90
14755;DHT22;7469;50.906;6.952;2023-12-20T10:45:54;7.60;99.90
14755;DHT22;7469;50.906;6.952;2023-12-20T10:48:23;7.60;99.90
14755;DHT22;7469;50.906;6.952;2023-12-20T10:50:56;7.60;99.90
14755;DHT22;7469;50.906;6.952;2023-12-20T10:53:25;7.60;99.90
14755;DHT22;7469;50.906;6.952;2023-12-20T10:55:55;7.60;99.90
14755;DHT22;7469;50.906;6.952;2023-12-20T10:58:26;7.60;99.90
14755;DHT22;7469;50.906;6.952;2023-12-20T11:01:00;7.60;99.90
14755;DHT22;7469;50.906;6.952;2023-12-20T11:03:34;7.60;99.90
14755;DHT22;7469;50.906;6.952;2023-12-20T11:06:05;7.60;99.90
14755;DHT22;7469;50.906;6.952;2023-12-20T11:08:44;7.60;99.90
14755;DHT22;7469;50.906;6.952;2023-12-20T11:11:20;7.70;99.90
14755;DHT22;7469;50.906;6.952;2023-12-20T11:13:55;7.70;99.90
14755;DHT22;7469;50.906;6.952;2023-12-20T11:16:26;7.70;99.90
14755;DHT22;7469;50.906;6.952;2023-12-20T11:19:07;7.70;99.90
14755;DHT22;7469;50.906;6.952;2023-12-20T11:21:35;7.70;99.90
14755;DHT22;7469;50.906;6.952;2023-12-20T11:24:04;7.70;99.90
14755;DHT22;7469;50.906;6.952;2023-12-20T11:26:32;7.70;99.90
14755;DHT22;7469;50.906;6.952;2023-12-20T11:29:29;7.80;99.90
14755;DHT22;7469;50.906;6.952;2023-12-20T11:31:59;7.80;99.90
14755;DHT22;7469;50.906;6.952;2023-12-20T11:34:28;7.80;99.90
14755;DHT22;7469;50.906;6.952;2023-12-20T11:37:00;7.70;99.90
14755;DHT22;7469;50.906;6.952;2023-12-20T11:39:30;7.70;99.90
14755;DHT22;7469;50.906;6.952;2023-12-20T11:42:04;7.80;99.90
14755;DHT22;7469;50.906;6.952;2023-12-20T11:44:33;7.80;99.90
14755;DHT22;7469;50.906;6.952;2023-12-20T11:47:02;7.80;99.90
14755;DHT22;7469;50.906;6.952;2023-12-20T11:49:32;7.80;99.90
14755;DHT22;7469;50.906;6.952;2023-12-20T11:52:00;7.80;99.90
14755;DHT22;7469;50.906;6.952;2023-12-20T11:54:30;7.80;99.90
14755;DHT22;7469;50.906;6.952;2023-12-20T11:56:58;7.80;99.90
14755;DHT22;7469;50.906;6.952;2023-12-20T11:59:26;7.80;99.90
14755;DHT22;7469;50.906;6.952;2023-12-20T12:01:56;7.80;99.90
14755;DHT22;7469;50.906;6.952;2023-12-20T12:04:29;7.80;99.90
14755;DHT22;7469;50.906;6.952;2023-12-20T12:06:57;7.80;99.90
14755;DHT22;7469;50.906;6.952;2023-12-20T12:09:25;7.80;99.90
14755;DHT22;7469;50.906;6.952;2023-12-20T12:11:53;7.80;99.90
14755;DHT22;7469;50.906;6.952;2023-12-20T12:14:21;7.80;99.90
14755;DHT22;7469;50.906;6.952;2023-12-20T12:16:49;7.80;99.90
14755;DHT22;7469;50.906;6.952;2023-12-20T12:19:20;7.80;99.90
14755;DHT22;7469;50.906;6.952;2023-12-20T12:21:50;7.80;99.90
14755;DHT22;7469;50.906;6.952;2023-12-20T12:24:20;7.80;99.90
14755;DHT22;7469;50.906;6.952;2023-12-20T12:26:52;7.90;99.90
14755;DHT22;7469;50.906;6.952;2023-12-20T12:29:20;7.90;99.90
14755;DHT22;7469;50.906;6.952;2023-12-20T12:31:48;7.90;99.90
14755;DHT22;7469;50.906;6.952;2023-12-20T12:34:17;7.90;99.90
14755;DHT22;7469;50.906;6.952;2023-12-20T12:36:45;8.00;99.90
14755;DHT22;7469;50.906;6.952;2023-12-20T12:39:18;7.80;99.90
14755;DHT22;7469;50.906;6.952;2023-12-20T12:41:46;7.80;99.90
14755;DHT22;7469;50.906;6.952;2023-12-20T12:44:14;7.90;99.90
14755;DHT22;7469;50.906;6.952;2023-12-20T12:46:44;7.90;99.90
14755;DHT22;7469;50.906;6.952;2023-12-20T12:49:12;7.90;99.90
14755;DHT22;7469;50.906;6.952;2023-12-20T12:51:41;7.90;99.90
14755;DHT22;7469;50.906;6.952;2023-12-20T12:54:09;7.80;99.90
14755;DHT22;7469;50.906;6.952;2023-12-20T12:56:39;7.80;99.90
14755;DHT22;7469;50.906;6.952;2023-12-20T12:59:07;7.90;99.90
14755;DHT22;7469;50.906;6.952;2023-12-20T13:01:34;7.90;99.90
14755;DHT22;7469;50.906;6.952;2023-12-20T13:04:03;7.90;99.90
14755;DHT22;7469;50.906;6.952;2023-12-20T13:06:37;7.90;99.90
14755;DHT22;7469;50.906;6.952;2023-12-20T13:09:05;7.90;99.90
14755;DHT22;7469;50.906;6.952;2023-12-20T13:11:33;7.90;99.90
14755;DHT22;7469;50.906;6.952;2023-12-20T13:14:03;7.90;99.90
14755;DHT22;7469;50.906;6.952;2023-12-20T13:16:31;7.80;99.90
14755;DHT22;7469;50.906;6.952;2023-12-20T13:19:01;7.80;99.90
14755;DHT22;7469;50.906;6.952;2023-12-20T13:21:29;7.70;99.90
14755;DHT22;7469;50.906;6.952;2023-12-20T13:23:57;7.70;99.90
14755;DHT22;7469;50.906;6.952;2023-12-20T13:26:26;7.60;99.90
14755;DHT22;7469;50.906;6.952;2023-12-20T13:28:54;7.70;99.90
14755;DHT22;7469;50.906;6.952;2023-12-20T13:31:23;7.70;99.90
14755;DHT22;7469;50.906;6.952;2023-12-20T13:33:51;7.70;99.90
14755;DHT22;7469;50.906;6.952;2023-12-20T13:36:20;7.80;99.90
14755;DHT22;7469;50.906;6.952;2023-12-20T13:38:48;7.80;99.90
14755;DHT22;7469;50.906;6.952;2023-12-20T13:41:16;7.80;99.90
14755;DHT22;7469;50.906;6.952;2023-12-20T13:43:44;7.80;99.90
14755;DHT22;7469;50.906;6.952;2023-12-20T13:46:12;7.90;99.90
14755;DHT22;7469;50.906;6.952;2023-12-20T13:48:42;8.00;99.90
14755;DHT22;7469;50.906;6.952;2023-12-20T13:51:10;7.90;99.90
14755;DHT22;7469;50.906;6.952;2023-12-20T13:53:38;8.00;99.90
14755;DHT22;7469;50.906;6.952;2023-12-20T13:56:06;8.00;99.90
14755;DHT22;7469;50.906;6.952;2023-12-20T13:58:34;8.00;99.90
14755;DHT22;7469;50.906;6.952;2023-12-20T14:01:04;8.00;99.90
14755;DHT22;7469;50.906;6.952;2023-12-20T14:03:32;7.90;99.90
14755;DHT22;7469;50.906;6.952;2023-12-20T14:06:02;8.00;99.90
14755;DHT22;7469;50.906;6.952;2023-12-20T14:08:30;7.90;99.90
14755;DHT22;7469;50.906;6.952;2023-12-20T14:10:58;7.90;99.90
14755;DHT22;7469;50.906;6.952;2023-12-20T14:13:28;7.90;99.90
14755;DHT22;7469;50.906;6.952;2023-12-20T14:15:56;7.90;99.90
14755;DHT22;7469;50.906;6.952;2023-12-20T14:18:25;7.90;99.90
14755;DHT22;7469;50.906;6.952;2023-12-20T14:20:53;7.90;99.90
14755;DHT22;7469;50.906;6.952;2023-12-20T14:23:23;7.90;99.90
14755;DHT22;7469;50.906;6.952;2023-12-20T14:25:51;7.90;99.90
14755;DHT22;7469;50.906;6.952;2023-12-20T14:28:19;7.90;99.90
14755;DHT22;7469;50.906;6.952;2023-12-20T14:30:47;7.90;99.90
14755;DHT22;7469;50.906;6.952;2023-12-20T14:33:16;7.90;99.90
14755;DHT22;7469;50.906;6.952;2023-12-20T14:35:46;7.90;99.90
14755;DHT22;7469;50.906;6.952;2023-12-20T14:38:14;7.90;99.90
14755;DHT22;7469;50.906;6.952;2023-12-20T14:40:43;8.00;99.90
14755;DHT22;7469;50.906;6.952;2023-12-20T14:43:11;8.00;99.90
14755;DHT22;7469;50.906;6.952;2023-12-20T14:45:39;8.00;99.90
14755;DHT22;7469;50.906;6.952;2023-12-20T14:48:07;8.00;99.90
14755;DHT22;7469;50.906;6.952;2023-12-20T14:50:35;8.00;99.90
14755;DHT22;7469;50.906;6.952;2023-12-20T14:53:04;8.00;99.90
14755;DHT22;7469;50.906;6.952;2023-12-20T14:55:32;8.00;99.90
14755;DHT22;7469;50.906;6.952;2023-12-20T14:58:02;8.10;99.90
14755;DHT22;7469;50.906;6.952;2023-12-20T15:00:30;8.10;99.90
14755;DHT22;7469;50.906;6.952;2023-12-20T15:02:58;8.10;99.90
14755;DHT22;7469;50.906;6.952;2023-12-20T15:05:26;8.10;99.90
14755;DHT22;7469;50.906;6.952;2023-12-20T15:07:54;8.10;99.90
14755;DHT22;7469;50.906;6.952;2023-12-20T15:10:23;8.20;99.90
14755;DHT22;7469;50.906;6.952;2023-12-20T15:12:51;8.10;99.90
14755;DHT22;7469;50.906;6.952;2023-12-20T15:15:20;8.10;99.90
14755;DHT22;7469;50.906;6.952;2023-12-20T15:17:47;8.10;99.90
14755;DHT22;7469;50.906;6.952;2023-12-20T15:20:15;8.20;99.90
14755;DHT22;7469;50.906;6.952;2023-12-20T15:22:43;8.10;99.90
14755;DHT22;7469;50.906;6.952;2023-12-20T15:25:12;8.10;99.90
14755;DHT22;7469;50.906;6.952;2023-12-20T15:27:46;8.10;99.90
14755;DHT22;7469;50.906;6.952;2023-12-20T15:30:20;8.10;99.90
14755;DHT22;7469;50.906;6.952;2023-12-20T15:32:48;8.10;99.90
14755;DHT22;7469;50.906;6.952;2023-12-20T15:35:16;8.10;99.90
14755;DHT22;7469;50.906;6.952;2023-12-20T15:37:45;8.20;99.90
14755;DHT22;7469;50.906;6.952;2023-12-20T15:40:13;8.20;99.90
14755;DHT22;7469;50.906;6.952;2023-12-20T15:42:41;8.20;99.90
14755;DHT22;7469;50.906;6.952;2023-12-20T15:45:10;8.10;99.90
14755;DHT22;7469;50.906;6.952;2023-12-20T15:47:39;8.10;99.90
14755;DHT22;7469;50.906;6.952;2023-12-20T15:50:07;8.10;99.90
14755;DHT22;7469;50.906;6.952;2023-12-20T15:52:36;8.10;99.90
14755;DHT22;7469;50.906;6.952;2023-12-20T15:55:05;8.10;99.90
14755;DHT22;7469;50.906;6.952;2023-12-20T15:57:34;8.10;99.90
14755;DHT22;7469;50.906;6.952;2023-12-20T16:00:18;8.10;99.90
14755;DHT22;7469;50.906;6.952;2023-12-20T16:02:47;8.10;99.90
14755;DHT22;7469;50.906;6.952;2023-12-20T16:05:16;8.10;99.90
14755;DHT22;7469;50.906;6.952;2023-12-20T16:07:45;8.10;99.90
14755;DHT22;7469;50.906;6.952;2023-12-20T16:10:13;8.10;99.90
14755;DHT22;7469;50.906;6.952;2023-12-20T16:12:41;8.10;99.90
14755;DHT22;7469;50.906;6.952;2023-12-20T16:15:10;8.10;99.90